Aviation Digital Data Service (ADDS)

Output produced by METARs form (1741 UTC 18 January 2018)
found at http://aviationweather.gov/adds/metars/
 
KLAX 181724Z 1818/1924 VRB03KT P6SM BKN200 
     FM182000 27010KT P6SM BKN200 
     FM190300 VRB03KT P6SM SCT025 BKN150 
     FM190600 VRB03KT P6SM OVC015 
     FM191500 VRB03KT P6SM BKN025 OVC040 
     FM192000 27010KT P6SM SCT025 BKN050